sensor_id;sensor_type;location;lat;lon;timestamp;P1;durP1;ratioP1;P2;durP2;ratioP2
74269;SDS011;62754;48.252;11.654;2022-12-08T00:00:23;14.57;;;7.72;;
74269;SDS011;62754;48.252;11.654;2022-12-08T00:02:48;15.15;;;7.90;;
74269;SDS011;62754;48.252;11.654;2022-12-08T00:05:14;16.15;;;8.65;;
74269;SDS011;62754;48.252;11.654;2022-12-08T00:07:40;15.48;;;8.23;;
74269;SDS011;62754;48.252;11.654;2022-12-08T00:10:06;18.80;;;7.35;;
74269;SDS011;62754;48.252;11.654;2022-12-08T00:12:32;15.13;;;8.20;;
74269;SDS011;62754;48.252;11.654;2022-12-08T00:14:58;16.33;;;8.13;;
74269;SDS011;62754;48.252;11.654;2022-12-08T00:17:24;14.13;;;7.97;;
74269;SDS011;62754;48.252;11.654;2022-12-08T00:19:50;16.95;;;8.40;;
74269;SDS011;62754;48.252;11.654;2022-12-08T00:22:15;16.48;;;8.55;;
74269;SDS011;62754;48.252;11.654;2022-12-08T00:24:42;16.10;;;8.05;;
74269;SDS011;62754;48.252;11.654;2022-12-08T00:27:08;18.05;;;9.23;;
74269;SDS011;62754;48.252;11.654;2022-12-08T00:29:36;16.73;;;9.13;;
74269;SDS011;62754;48.252;11.654;2022-12-08T00:32:02;15.40;;;8.23;;
74269;SDS011;62754;48.252;11.654;2022-12-08T00:34:29;17.25;;;8.10;;
74269;SDS011;62754;48.252;11.654;2022-12-08T00:36:55;14.93;;;8.30;;
74269;SDS011;62754;48.252;11.654;2022-12-08T00:39:21;17.83;;;8.80;;
74269;SDS011;62754;48.252;11.654;2022-12-08T00:41:46;14.95;;;8.15;;
74269;SDS011;62754;48.252;11.654;2022-12-08T00:44:13;16.00;;;8.15;;
74269;SDS011;62754;48.252;11.654;2022-12-08T00:46:40;16.15;;;8.55;;
74269;SDS011;62754;48.252;11.654;2022-12-08T00:49:06;15.65;;;7.95;;
74269;SDS011;62754;48.252;11.654;2022-12-08T00:51:32;18.05;;;8.75;;
74269;SDS011;62754;48.252;11.654;2022-12-08T00:53:58;15.98;;;7.75;;
74269;SDS011;62754;48.252;11.654;2022-12-08T00:56:25;16.70;;;8.43;;
74269;SDS011;62754;48.252;11.654;2022-12-08T00:58:51;15.13;;;8.38;;
74269;SDS011;62754;48.252;11.654;2022-12-08T01:01:17;18.63;;;8.93;;
74269;SDS011;62754;48.252;11.654;2022-12-08T01:03:43;16.70;;;8.90;;
74269;SDS011;62754;48.252;11.654;2022-12-08T01:06:09;16.90;;;8.43;;
74269;SDS011;62754;48.252;11.654;2022-12-08T01:08:35;17.45;;;8.73;;
74269;SDS011;62754;48.252;11.654;2022-12-08T01:11:02;15.68;;;8.43;;
74269;SDS011;62754;48.252;11.654;2022-12-08T01:13:28;14.45;;;8.13;;
74269;SDS011;62754;48.252;11.654;2022-12-08T01:15:54;15.32;;;8.40;;
74269;SDS011;62754;48.252;11.654;2022-12-08T01:18:20;15.18;;;7.90;;
74269;SDS011;62754;48.252;11.654;2022-12-08T01:20:46;15.52;;;8.10;;
74269;SDS011;62754;48.252;11.654;2022-12-08T01:23:11;14.93;;;8.18;;
74269;SDS011;62754;48.252;11.654;2022-12-08T01:25:37;15.70;;;8.48;;
74269;SDS011;62754;48.252;11.654;2022-12-08T01:28:03;14.50;;;8.23;;
74269;SDS011;62754;48.252;11.654;2022-12-08T01:30:29;13.60;;;8.05;;
74269;SDS011;62754;48.252;11.654;2022-12-08T01:32:55;17.15;;;9.20;;
74269;SDS011;62754;48.252;11.654;2022-12-08T01:35:21;17.67;;;8.70;;
74269;SDS011;62754;48.252;11.654;2022-12-08T01:37:48;14.77;;;7.82;;
74269;SDS011;62754;48.252;11.654;2022-12-08T01:40:14;14.25;;;8.43;;
74269;SDS011;62754;48.252;11.654;2022-12-08T01:42:40;16.65;;;8.90;;
74269;SDS011;62754;48.252;11.654;2022-12-08T01:45:13;16.30;;;8.57;;
74269;SDS011;62754;48.252;11.654;2022-12-08T01:47:46;17.48;;;8.75;;
74269;SDS011;62754;48.252;11.654;2022-12-08T01:50:14;14.20;;;8.10;;
74269;SDS011;62754;48.252;11.654;2022-12-08T01:52:48;17.17;;;8.63;;
74269;SDS011;62754;48.252;11.654;2022-12-08T01:57:46;15.02;;;7.57;;
74269;SDS011;62754;48.252;11.654;2022-12-08T02:00:15;15.70;;;8.02;;
74269;SDS011;62754;48.252;11.654;2022-12-08T02:05:17;17.42;;;9.27;;
74269;SDS011;62754;48.252;11.654;2022-12-08T02:07:45;18.58;;;9.13;;
74269;SDS011;62754;48.252;11.654;2022-12-08T02:10:13;15.63;;;7.95;;
74269;SDS011;62754;48.252;11.654;2022-12-08T02:12:42;15.48;;;7.90;;
74269;SDS011;62754;48.252;11.654;2022-12-08T02:15:09;15.25;;;8.57;;
74269;SDS011;62754;48.252;11.654;2022-12-08T02:20:34;15.18;;;8.45;;
74269;SDS011;62754;48.252;11.654;2022-12-08T02:23:12;17.23;;;8.93;;
74269;SDS011;62754;48.252;11.654;2022-12-08T02:34:00;17.50;;;9.25;;
74269;SDS011;62754;48.252;11.654;2022-12-08T02:42:20;16.70;;;9.00;;
74269;SDS011;62754;48.252;11.654;2022-12-08T02:47:30;17.42;;;9.07;;
74269;SDS011;62754;48.252;11.654;2022-12-08T02:49:58;17.55;;;8.77;;
74269;SDS011;62754;48.252;11.654;2022-12-08T02:54:54;16.92;;;9.52;;
74269;SDS011;62754;48.252;11.654;2022-12-08T03:00:14;18.35;;;9.73;;
74269;SDS011;62754;48.252;11.654;2022-12-08T03:03:07;15.65;;;8.18;;
74269;SDS011;62754;48.252;11.654;2022-12-08T03:11:03;16.45;;;8.93;;
74269;SDS011;62754;48.252;11.654;2022-12-08T03:13:45;17.35;;;8.82;;
74269;SDS011;62754;48.252;11.654;2022-12-08T03:16:16;19.15;;;9.77;;
74269;SDS011;62754;48.252;11.654;2022-12-08T03:18:47;17.98;;;8.52;;
74269;SDS011;62754;48.252;11.654;2022-12-08T03:21:18;16.65;;;8.65;;
74269;SDS011;62754;48.252;11.654;2022-12-08T03:23:46;17.08;;;8.80;;
74269;SDS011;62754;48.252;11.654;2022-12-08T03:26:17;20.20;;;9.23;;
74269;SDS011;62754;48.252;11.654;2022-12-08T03:28:49;21.90;;;10.07;;
74269;SDS011;62754;48.252;11.654;2022-12-08T03:31:15;19.98;;;9.23;;
74269;SDS011;62754;48.252;11.654;2022-12-08T03:33:43;20.80;;;9.75;;
74269;SDS011;62754;48.252;11.654;2022-12-08T03:36:14;20.98;;;8.85;;
74269;SDS011;62754;48.252;11.654;2022-12-08T03:38:41;19.15;;;9.95;;
74269;SDS011;62754;48.252;11.654;2022-12-08T03:41:09;17.40;;;8.82;;
74269;SDS011;62754;48.252;11.654;2022-12-08T03:43:35;18.10;;;9.23;;
74269;SDS011;62754;48.252;11.654;2022-12-08T03:46:01;17.25;;;9.00;;
74269;SDS011;62754;48.252;11.654;2022-12-08T03:48:27;16.27;;;8.82;;
74269;SDS011;62754;48.252;11.654;2022-12-08T03:50:53;14.98;;;8.93;;
74269;SDS011;62754;48.252;11.654;2022-12-08T03:53:18;15.32;;;8.10;;
74269;SDS011;62754;48.252;11.654;2022-12-08T03:55:44;15.65;;;8.85;;
74269;SDS011;62754;48.252;11.654;2022-12-08T03:58:10;16.52;;;8.63;;
74269;SDS011;62754;48.252;11.654;2022-12-08T04:00:36;14.20;;;7.97;;
74269;SDS011;62754;48.252;11.654;2022-12-08T04:03:02;18.13;;;8.63;;
74269;SDS011;62754;48.252;11.654;2022-12-08T04:05:27;14.38;;;8.63;;
74269;SDS011;62754;48.252;11.654;2022-12-08T04:07:55;18.50;;;8.70;;
74269;SDS011;62754;48.252;11.654;2022-12-08T04:10:22;17.20;;;8.07;;
74269;SDS011;62754;48.252;11.654;2022-12-08T04:12:48;16.65;;;8.30;;
74269;SDS011;62754;48.252;11.654;2022-12-08T04:15:13;16.48;;;7.93;;
74269;SDS011;62754;48.252;11.654;2022-12-08T04:17:39;14.57;;;7.53;;
74269;SDS011;62754;48.252;11.654;2022-12-08T04:20:05;14.48;;;7.85;;
74269;SDS011;62754;48.252;11.654;2022-12-08T04:22:31;15.73;;;7.82;;
74269;SDS011;62754;48.252;11.654;2022-12-08T04:24:57;13.55;;;7.72;;
74269;SDS011;62754;48.252;11.654;2022-12-08T04:27:23;15.88;;;8.88;;
74269;SDS011;62754;48.252;11.654;2022-12-08T04:29:48;14.23;;;7.70;;
74269;SDS011;62754;48.252;11.654;2022-12-08T04:32:14;17.60;;;8.25;;
74269;SDS011;62754;48.252;11.654;2022-12-08T04:34:40;14.93;;;7.60;;
74269;SDS011;62754;48.252;11.654;2022-12-08T04:37:06;18.08;;;7.97;;
74269;SDS011;62754;48.252;11.654;2022-12-08T04:39:31;15.05;;;7.85;;
74269;SDS011;62754;48.252;11.654;2022-12-08T04:41:57;14.05;;;7.43;;
74269;SDS011;62754;48.252;11.654;2022-12-08T04:44:23;18.80;;;10.27;;
74269;SDS011;62754;48.252;11.654;2022-12-08T04:46:49;17.65;;;8.60;;
74269;SDS011;62754;48.252;11.654;2022-12-08T04:49:14;15.70;;;8.52;;
74269;SDS011;62754;48.252;11.654;2022-12-08T04:51:40;15.38;;;8.07;;
74269;SDS011;62754;48.252;11.654;2022-12-08T04:54:06;18.45;;;8.50;;
74269;SDS011;62754;48.252;11.654;2022-12-08T04:56:32;16.60;;;8.52;;
74269;SDS011;62754;48.252;11.654;2022-12-08T04:58:57;17.77;;;9.15;;
74269;SDS011;62754;48.252;11.654;2022-12-08T05:01:23;17.17;;;8.20;;
74269;SDS011;62754;48.252;11.654;2022-12-08T05:03:49;18.27;;;8.85;;
74269;SDS011;62754;48.252;11.654;2022-12-08T05:06:15;16.88;;;8.38;;
74269;SDS011;62754;48.252;11.654;2022-12-08T05:08:41;16.38;;;8.60;;
74269;SDS011;62754;48.252;11.654;2022-12-08T05:11:08;16.55;;;9.25;;
74269;SDS011;62754;48.252;11.654;2022-12-08T05:13:35;19.50;;;9.10;;
74269;SDS011;62754;48.252;11.654;2022-12-08T05:16:05;18.50;;;8.82;;
74269;SDS011;62754;48.252;11.654;2022-12-08T05:18:35;15.07;;;8.32;;
74269;SDS011;62754;48.252;11.654;2022-12-08T05:21:02;13.73;;;7.40;;
74269;SDS011;62754;48.252;11.654;2022-12-08T05:23:28;21.67;;;11.25;;
74269;SDS011;62754;48.252;11.654;2022-12-08T05:25:54;19.52;;;10.35;;
74269;SDS011;62754;48.252;11.654;2022-12-08T05:28:20;17.58;;;9.15;;
74269;SDS011;62754;48.252;11.654;2022-12-08T05:30:46;15.23;;;7.68;;
74269;SDS011;62754;48.252;11.654;2022-12-08T05:33:11;24.27;;;12.40;;
74269;SDS011;62754;48.252;11.654;2022-12-08T05:35:37;20.05;;;9.65;;
74269;SDS011;62754;48.252;11.654;2022-12-08T05:38:04;19.60;;;10.10;;
74269;SDS011;62754;48.252;11.654;2022-12-08T05:40:30;16.35;;;8.60;;
74269;SDS011;62754;48.252;11.654;2022-12-08T05:42:55;19.10;;;9.80;;
74269;SDS011;62754;48.252;11.654;2022-12-08T05:45:21;18.10;;;8.73;;
74269;SDS011;62754;48.252;11.654;2022-12-08T05:47:47;17.45;;;8.93;;
74269;SDS011;62754;48.252;11.654;2022-12-08T05:50:13;22.05;;;12.23;;
74269;SDS011;62754;48.252;11.654;2022-12-08T05:52:38;18.65;;;11.13;;
74269;SDS011;62754;48.252;11.654;2022-12-08T05:55:04;16.67;;;9.48;;
74269;SDS011;62754;48.252;11.654;2022-12-08T05:57:30;15.35;;;9.18;;
74269;SDS011;62754;48.252;11.654;2022-12-08T05:59:56;19.10;;;9.32;;
74269;SDS011;62754;48.252;11.654;2022-12-08T06:02:22;16.45;;;8.98;;
74269;SDS011;62754;48.252;11.654;2022-12-08T06:04:47;16.33;;;9.00;;
74269;SDS011;62754;48.252;11.654;2022-12-08T06:07:13;16.10;;;9.15;;
74269;SDS011;62754;48.252;11.654;2022-12-08T06:09:39;16.90;;;9.23;;
74269;SDS011;62754;48.252;11.654;2022-12-08T06:12:05;20.38;;;8.85;;
74269;SDS011;62754;48.252;11.654;2022-12-08T06:14:31;17.55;;;9.07;;
74269;SDS011;62754;48.252;11.654;2022-12-08T06:16:56;19.73;;;10.40;;
74269;SDS011;62754;48.252;11.654;2022-12-08T06:19:22;14.77;;;8.38;;
74269;SDS011;62754;48.252;11.654;2022-12-08T06:21:48;15.57;;;8.77;;
74269;SDS011;62754;48.252;11.654;2022-12-08T06:24:14;16.92;;;8.73;;
74269;SDS011;62754;48.252;11.654;2022-12-08T06:26:39;17.98;;;9.60;;
74269;SDS011;62754;48.252;11.654;2022-12-08T06:29:05;18.90;;;9.30;;
74269;SDS011;62754;48.252;11.654;2022-12-08T06:31:31;17.77;;;8.50;;
74269;SDS011;62754;48.252;11.654;2022-12-08T06:33:57;16.05;;;8.65;;
74269;SDS011;62754;48.252;11.654;2022-12-08T06:36:24;18.67;;;9.43;;
74269;SDS011;62754;48.252;11.654;2022-12-08T06:38:51;14.70;;;8.48;;
74269;SDS011;62754;48.252;11.654;2022-12-08T06:41:17;19.35;;;9.35;;
74269;SDS011;62754;48.252;11.654;2022-12-08T06:43:43;16.58;;;8.85;;
74269;SDS011;62754;48.252;11.654;2022-12-08T06:46:10;16.15;;;9.02;;
74269;SDS011;62754;48.252;11.654;2022-12-08T06:48:38;17.75;;;8.48;;
74269;SDS011;62754;48.252;11.654;2022-12-08T06:51:10;18.50;;;8.88;;
74269;SDS011;62754;48.252;11.654;2022-12-08T06:53:38;16.92;;;8.90;;
74269;SDS011;62754;48.252;11.654;2022-12-08T06:56:05;18.08;;;9.20;;
74269;SDS011;62754;48.252;11.654;2022-12-08T06:58:31;17.45;;;9.13;;
74269;SDS011;62754;48.252;11.654;2022-12-08T07:00:57;18.05;;;9.63;;
74269;SDS011;62754;48.252;11.654;2022-12-08T07:03:27;17.65;;;9.98;;
74269;SDS011;62754;48.252;11.654;2022-12-08T07:05:54;18.25;;;9.55;;
74269;SDS011;62754;48.252;11.654;2022-12-08T07:10:46;13.70;;;8.65;;
74269;SDS011;62754;48.252;11.654;2022-12-08T07:13:11;15.93;;;8.52;;
74269;SDS011;62754;48.252;11.654;2022-12-08T07:15:37;15.90;;;8.93;;
74269;SDS011;62754;48.252;11.654;2022-12-08T07:18:03;17.20;;;9.45;;
74269;SDS011;62754;48.252;11.654;2022-12-08T07:20:29;17.92;;;9.02;;
74269;SDS011;62754;48.252;11.654;2022-12-08T07:22:54;17.42;;;8.98;;
74269;SDS011;62754;48.252;11.654;2022-12-08T07:25:20;17.60;;;9.23;;
74269;SDS011;62754;48.252;11.654;2022-12-08T07:27:46;16.65;;;9.07;;
74269;SDS011;62754;48.252;11.654;2022-12-08T07:30:12;17.20;;;9.20;;
74269;SDS011;62754;48.252;11.654;2022-12-08T07:32:38;16.05;;;8.90;;
74269;SDS011;62754;48.252;11.654;2022-12-08T07:35:05;16.85;;;9.18;;
74269;SDS011;62754;48.252;11.654;2022-12-08T07:37:31;18.13;;;8.55;;
74269;SDS011;62754;48.252;11.654;2022-12-08T07:39:58;17.73;;;8.93;;
74269;SDS011;62754;48.252;11.654;2022-12-08T07:42:24;15.88;;;9.15;;
74269;SDS011;62754;48.252;11.654;2022-12-08T07:44:50;17.73;;;8.98;;
74269;SDS011;62754;48.252;11.654;2022-12-08T07:47:16;19.80;;;9.80;;
74269;SDS011;62754;48.252;11.654;2022-12-08T07:49:41;17.73;;;9.85;;
74269;SDS011;62754;48.252;11.654;2022-12-08T07:52:10;18.00;;;9.93;;
74269;SDS011;62754;48.252;11.654;2022-12-08T07:54:36;17.83;;;9.43;;
74269;SDS011;62754;48.252;11.654;2022-12-08T07:57:01;16.90;;;9.23;;
74269;SDS011;62754;48.252;11.654;2022-12-08T07:59:27;16.60;;;9.50;;
74269;SDS011;62754;48.252;11.654;2022-12-08T08:01:53;21.67;;;10.00;;
74269;SDS011;62754;48.252;11.654;2022-12-08T08:04:19;16.63;;;8.90;;
74269;SDS011;62754;48.252;11.654;2022-12-08T08:06:45;21.27;;;10.43;;
74269;SDS011;62754;48.252;11.654;2022-12-08T09:10:11;15.52;;;9.13;;
74269;SDS011;62754;48.252;11.654;2022-12-08T09:12:37;16.88;;;9.07;;
74269;SDS011;62754;48.252;11.654;2022-12-08T09:15:03;15.43;;;8.25;;
74269;SDS011;62754;48.252;11.654;2022-12-08T09:17:30;16.67;;;8.55;;
74269;SDS011;62754;48.252;11.654;2022-12-08T09:19:55;15.23;;;8.60;;
74269;SDS011;62754;48.252;11.654;2022-12-08T09:22:21;14.43;;;7.30;;
74269;SDS011;62754;48.252;11.654;2022-12-08T09:24:47;16.45;;;8.45;;
74269;SDS011;62754;48.252;11.654;2022-12-08T09:27:13;15.35;;;8.60;;
74269;SDS011;62754;48.252;11.654;2022-12-08T09:29:38;17.50;;;9.00;;
74269;SDS011;62754;48.252;11.654;2022-12-08T09:32:04;17.88;;;9.20;;
74269;SDS011;62754;48.252;11.654;2022-12-08T09:34:30;16.63;;;9.32;;
74269;SDS011;62754;48.252;11.654;2022-12-08T09:36:56;16.65;;;8.85;;
74269;SDS011;62754;48.252;11.654;2022-12-08T09:39:22;16.58;;;9.02;;
74269;SDS011;62754;48.252;11.654;2022-12-08T09:41:48;17.40;;;9.85;;
74269;SDS011;62754;48.252;11.654;2022-12-08T09:47:20;18.23;;;9.90;;
74269;SDS011;62754;48.252;11.654;2022-12-08T09:50:10;16.85;;;8.77;;
74269;SDS011;62754;48.252;11.654;2022-12-08T09:52:38;18.52;;;9.60;;
74269;SDS011;62754;48.252;11.654;2022-12-08T09:55:10;18.45;;;9.18;;
74269;SDS011;62754;48.252;11.654;2022-12-08T09:57:42;20.23;;;9.25;;
74269;SDS011;62754;48.252;11.654;2022-12-08T10:00:09;18.60;;;9.75;;
74269;SDS011;62754;48.252;11.654;2022-12-08T10:02:38;20.30;;;10.63;;
74269;SDS011;62754;48.252;11.654;2022-12-08T10:05:03;17.58;;;9.70;;
74269;SDS011;62754;48.252;11.654;2022-12-08T10:07:36;17.67;;;9.25;;
74269;SDS011;62754;48.252;11.654;2022-12-08T10:13:03;17.83;;;9.15;;
74269;SDS011;62754;48.252;11.654;2022-12-08T10:15:43;17.40;;;8.85;;
74269;SDS011;62754;48.252;11.654;2022-12-08T10:18:28;15.68;;;9.20;;
74269;SDS011;62754;48.252;11.654;2022-12-08T10:21:17;16.75;;;9.20;;
74269;SDS011;62754;48.252;11.654;2022-12-08T10:23:46;16.35;;;9.15;;
74269;SDS011;62754;48.252;11.654;2022-12-08T10:26:17;18.27;;;9.43;;
74269;SDS011;62754;48.252;11.654;2022-12-08T10:28:44;16.02;;;8.82;;
74269;SDS011;62754;48.252;11.654;2022-12-08T10:31:20;20.08;;;10.10;;
74269;SDS011;62754;48.252;11.654;2022-12-08T10:33:56;18.63;;;9.68;;
74269;SDS011;62754;48.252;11.654;2022-12-08T10:36:43;18.45;;;10.18;;
74269;SDS011;62754;48.252;11.654;2022-12-08T10:42:15;17.40;;;9.90;;
74269;SDS011;62754;48.252;11.654;2022-12-08T10:47:23;19.20;;;10.13;;
74269;SDS011;62754;48.252;11.654;2022-12-08T10:52:44;18.25;;;9.95;;
74269;SDS011;62754;48.252;11.654;2022-12-08T10:55:17;22.67;;;10.70;;
74269;SDS011;62754;48.252;11.654;2022-12-08T10:57:44;19.92;;;10.05;;
74269;SDS011;62754;48.252;11.654;2022-12-08T11:00:11;18.80;;;9.85;;
74269;SDS011;62754;48.252;11.654;2022-12-08T11:03:00;20.77;;;10.57;;
74269;SDS011;62754;48.252;11.654;2022-12-08T11:05:30;19.67;;;10.50;;
74269;SDS011;62754;48.252;11.654;2022-12-08T11:07:58;22.33;;;10.50;;
74269;SDS011;62754;48.252;11.654;2022-12-08T11:10:26;19.83;;;10.45;;
74269;SDS011;62754;48.252;11.654;2022-12-08T11:12:58;20.05;;;11.07;;
74269;SDS011;62754;48.252;11.654;2022-12-08T11:15:25;19.63;;;10.68;;
74269;SDS011;62754;48.252;11.654;2022-12-08T11:18:06;27.10;;;12.27;;
74269;SDS011;62754;48.252;11.654;2022-12-08T11:20:38;18.02;;;9.82;;
74269;SDS011;62754;48.252;11.654;2022-12-08T11:23:17;18.83;;;11.13;;
74269;SDS011;62754;48.252;11.654;2022-12-08T11:25:45;20.50;;;11.35;;
74269;SDS011;62754;48.252;11.654;2022-12-08T11:28:12;18.00;;;10.18;;
74269;SDS011;62754;48.252;11.654;2022-12-08T11:30:42;19.48;;;11.18;;
74269;SDS011;62754;48.252;11.654;2022-12-08T11:36:04;18.88;;;10.05;;
74269;SDS011;62754;48.252;11.654;2022-12-08T11:38:32;20.65;;;9.70;;
74269;SDS011;62754;48.252;11.654;2022-12-08T11:46:02;20.58;;;9.77;;
74269;SDS011;62754;48.252;11.654;2022-12-08T11:51:29;24.10;;;12.90;;
74269;SDS011;62754;48.252;11.654;2022-12-08T11:56:43;17.60;;;9.27;;
74269;SDS011;62754;48.252;11.654;2022-12-08T11:59:47;19.20;;;9.45;;
74269;SDS011;62754;48.252;11.654;2022-12-08T12:02:11;16.58;;;9.40;;
74269;SDS011;62754;48.252;11.654;2022-12-08T12:07:19;28.35;;;13.07;;
74269;SDS011;62754;48.252;11.654;2022-12-08T12:18:38;17.83;;;9.07;;
74269;SDS011;62754;48.252;11.654;2022-12-08T12:23:48;19.23;;;9.82;;
74269;SDS011;62754;48.252;11.654;2022-12-08T12:26:26;17.40;;;9.95;;
74269;SDS011;62754;48.252;11.654;2022-12-08T12:28:59;17.50;;;9.77;;
74269;SDS011;62754;48.252;11.654;2022-12-08T12:34:07;17.75;;;9.55;;
74269;SDS011;62754;48.252;11.654;2022-12-08T12:36:43;16.58;;;9.25;;
74269;SDS011;62754;48.252;11.654;2022-12-08T12:39:12;15.10;;;8.63;;
74269;SDS011;62754;48.252;11.654;2022-12-08T12:41:53;18.15;;;9.40;;
74269;SDS011;62754;48.252;11.654;2022-12-08T12:46:53;17.00;;;9.02;;
74269;SDS011;62754;48.252;11.654;2022-12-08T12:52:03;15.82;;;9.07;;
74269;SDS011;62754;48.252;11.654;2022-12-08T12:54:29;18.10;;;9.27;;
74269;SDS011;62754;48.252;11.654;2022-12-08T13:05:17;28.25;;;14.73;;
74269;SDS011;62754;48.252;11.654;2022-12-08T13:15:38;18.70;;;10.85;;
74269;SDS011;62754;48.252;11.654;2022-12-08T13:18:17;18.40;;;9.57;;
74269;SDS011;62754;48.252;11.654;2022-12-08T13:20:58;25.02;;;12.40;;
74269;SDS011;62754;48.252;11.654;2022-12-08T13:23:49;16.48;;;8.38;;
74269;SDS011;62754;48.252;11.654;2022-12-08T13:26:17;19.27;;;11.10;;
74269;SDS011;62754;48.252;11.654;2022-12-08T13:29:12;16.65;;;8.90;;
74269;SDS011;62754;48.252;11.654;2022-12-08T13:34:20;16.30;;;8.35;;
74269;SDS011;62754;48.252;11.654;2022-12-08T13:44:50;22.23;;;10.50;;
74269;SDS011;62754;48.252;11.654;2022-12-08T13:47:23;15.20;;;8.70;;
74269;SDS011;62754;48.252;11.654;2022-12-08T13:49:56;17.90;;;9.15;;
74269;SDS011;62754;48.252;11.654;2022-12-08T13:52:37;19.65;;;10.07;;
74269;SDS011;62754;48.252;11.654;2022-12-08T13:58:14;17.10;;;9.90;;
74269;SDS011;62754;48.252;11.654;2022-12-08T14:00:59;19.35;;;10.15;;
74269;SDS011;62754;48.252;11.654;2022-12-08T14:03:26;20.70;;;10.27;;
74269;SDS011;62754;48.252;11.654;2022-12-08T14:05:52;18.67;;;9.75;;
74269;SDS011;62754;48.252;11.654;2022-12-08T14:08:20;17.38;;;9.30;;
74269;SDS011;62754;48.252;11.654;2022-12-08T14:10:57;15.18;;;8.95;;
74269;SDS011;62754;48.252;11.654;2022-12-08T14:13:26;17.88;;;9.70;;
74269;SDS011;62754;48.252;11.654;2022-12-08T14:15:52;17.33;;;9.55;;
74269;SDS011;62754;48.252;11.654;2022-12-08T14:18:30;23.25;;;10.95;;
74269;SDS011;62754;48.252;11.654;2022-12-08T14:21:08;18.63;;;10.30;;
74269;SDS011;62754;48.252;11.654;2022-12-08T14:23:36;19.00;;;9.93;;
74269;SDS011;62754;48.252;11.654;2022-12-08T14:26:03;17.65;;;9.20;;
74269;SDS011;62754;48.252;11.654;2022-12-08T14:28:33;18.52;;;10.20;;
74269;SDS011;62754;48.252;11.654;2022-12-08T14:30:59;21.10;;;11.00;;
74269;SDS011;62754;48.252;11.654;2022-12-08T14:33:27;21.08;;;11.18;;
74269;SDS011;62754;48.252;11.654;2022-12-08T14:35:55;19.55;;;11.63;;
74269;SDS011;62754;48.252;11.654;2022-12-08T14:38:22;20.35;;;10.90;;
74269;SDS011;62754;48.252;11.654;2022-12-08T14:41:00;19.70;;;10.85;;
74269;SDS011;62754;48.252;11.654;2022-12-08T14:43:31;20.70;;;10.85;;
74269;SDS011;62754;48.252;11.654;2022-12-08T14:46:30;19.83;;;11.07;;
74269;SDS011;62754;48.252;11.654;2022-12-08T14:48:49;17.85;;;9.77;;
74269;SDS011;62754;48.252;11.654;2022-12-08T14:53:44;22.65;;;11.93;;
74269;SDS011;62754;48.252;11.654;2022-12-08T14:56:21;20.35;;;11.85;;
74269;SDS011;62754;48.252;11.654;2022-12-08T14:58:48;23.63;;;11.80;;
74269;SDS011;62754;48.252;11.654;2022-12-08T15:01:26;19.75;;;11.32;;
74269;SDS011;62754;48.252;11.654;2022-12-08T15:03:52;20.98;;;10.73;;
74269;SDS011;62754;48.252;11.654;2022-12-08T15:06:20;20.33;;;10.85;;
74269;SDS011;62754;48.252;11.654;2022-12-08T15:08:50;21.60;;;10.88;;
74269;SDS011;62754;48.252;11.654;2022-12-08T15:11:25;20.63;;;11.27;;
74269;SDS011;62754;48.252;11.654;2022-12-08T15:13:55;18.98;;;10.95;;
74269;SDS011;62754;48.252;11.654;2022-12-08T15:21:41;16.83;;;9.73;;
74269;SDS011;62754;48.252;11.654;2022-12-08T15:24:12;21.35;;;10.48;;
74269;SDS011;62754;48.252;11.654;2022-12-08T15:26:39;20.33;;;10.15;;
74269;SDS011;62754;48.252;11.654;2022-12-08T15:29:09;19.50;;;10.98;;
74269;SDS011;62754;48.252;11.654;2022-12-08T15:31:36;20.63;;;10.93;;
74269;SDS011;62754;48.252;11.654;2022-12-08T15:34:01;19.30;;;10.88;;
74269;SDS011;62754;48.252;11.654;2022-12-08T15:36:27;21.65;;;10.25;;
74269;SDS011;62754;48.252;11.654;2022-12-08T15:38:53;18.52;;;10.60;;
74269;SDS011;62754;48.252;11.654;2022-12-08T15:41:19;18.75;;;10.75;;
74269;SDS011;62754;48.252;11.654;2022-12-08T15:43:45;20.05;;;11.25;;
74269;SDS011;62754;48.252;11.654;2022-12-08T15:46:10;19.95;;;10.57;;
74269;SDS011;62754;48.252;11.654;2022-12-08T15:48:36;22.55;;;10.65;;
74269;SDS011;62754;48.252;11.654;2022-12-08T15:51:02;22.13;;;10.65;;
74269;SDS011;62754;48.252;11.654;2022-12-08T15:53:28;21.58;;;11.05;;
74269;SDS011;62754;48.252;11.654;2022-12-08T15:55:54;23.00;;;11.88;;
74269;SDS011;62754;48.252;11.654;2022-12-08T15:58:23;22.00;;;12.10;;
74269;SDS011;62754;48.252;11.654;2022-12-08T16:00:49;22.02;;;11.15;;
74269;SDS011;62754;48.252;11.654;2022-12-08T16:03:18;22.17;;;10.90;;
74269;SDS011;62754;48.252;11.654;2022-12-08T16:05:44;23.05;;;11.45;;
74269;SDS011;62754;48.252;11.654;2022-12-08T16:08:13;21.38;;;10.85;;
74269;SDS011;62754;48.252;11.654;2022-12-08T16:10:39;20.42;;;11.90;;
74269;SDS011;62754;48.252;11.654;2022-12-08T16:13:08;22.65;;;12.15;;
74269;SDS011;62754;48.252;11.654;2022-12-08T16:15:40;21.15;;;12.82;;
74269;SDS011;62754;48.252;11.654;2022-12-08T16:18:14;19.50;;;11.32;;
74269;SDS011;62754;48.252;11.654;2022-12-08T16:20:42;24.42;;;13.13;;
74269;SDS011;62754;48.252;11.654;2022-12-08T16:23:09;28.10;;;14.27;;
74269;SDS011;62754;48.252;11.654;2022-12-08T16:25:35;22.77;;;12.50;;
74269;SDS011;62754;48.252;11.654;2022-12-08T16:28:00;24.90;;;13.35;;
74269;SDS011;62754;48.252;11.654;2022-12-08T16:30:26;23.17;;;12.73;;
74269;SDS011;62754;48.252;11.654;2022-12-08T16:32:52;21.08;;;12.13;;
74269;SDS011;62754;48.252;11.654;2022-12-08T16:35:18;25.95;;;13.77;;
74269;SDS011;62754;48.252;11.654;2022-12-08T16:37:44;24.75;;;13.07;;
74269;SDS011;62754;48.252;11.654;2022-12-08T16:40:10;23.63;;;12.05;;
74269;SDS011;62754;48.252;11.654;2022-12-08T16:42:36;25.88;;;13.27;;
74269;SDS011;62754;48.252;11.654;2022-12-08T16:45:03;25.90;;;13.18;;
74269;SDS011;62754;48.252;11.654;2022-12-08T16:47:34;25.90;;;13.85;;
74269;SDS011;62754;48.252;11.654;2022-12-08T16:52:36;21.85;;;12.57;;
74269;SDS011;62754;48.252;11.654;2022-12-08T16:55:05;22.92;;;12.55;;
74269;SDS011;62754;48.252;11.654;2022-12-08T16:57:32;23.10;;;12.20;;
74269;SDS011;62754;48.252;11.654;2022-12-08T16:59:57;23.95;;;13.15;;
74269;SDS011;62754;48.252;11.654;2022-12-08T17:02:23;23.85;;;13.02;;
74269;SDS011;62754;48.252;11.654;2022-12-08T17:04:49;23.63;;;12.95;;
74269;SDS011;62754;48.252;11.654;2022-12-08T17:07:15;22.40;;;11.82;;
74269;SDS011;62754;48.252;11.654;2022-12-08T17:09:40;27.27;;;13.75;;
74269;SDS011;62754;48.252;11.654;2022-12-08T17:12:06;29.75;;;15.88;;
74269;SDS011;62754;48.252;11.654;2022-12-08T17:14:33;32.80;;;18.13;;
74269;SDS011;62754;48.252;11.654;2022-12-08T17:16:59;26.60;;;14.80;;
74269;SDS011;62754;48.252;11.654;2022-12-08T17:19:24;23.70;;;13.50;;
74269;SDS011;62754;48.252;11.654;2022-12-08T17:21:50;24.42;;;14.13;;
74269;SDS011;62754;48.252;11.654;2022-12-08T17:24:16;25.08;;;14.07;;
74269;SDS011;62754;48.252;11.654;2022-12-08T17:26:42;25.58;;;13.32;;
74269;SDS011;62754;48.252;11.654;2022-12-08T17:29:07;27.40;;;13.65;;
74269;SDS011;62754;48.252;11.654;2022-12-08T17:31:33;24.48;;;11.98;;
74269;SDS011;62754;48.252;11.654;2022-12-08T17:33:59;24.05;;;12.73;;